sensor_id;sensor_type;location;lat;lon;timestamp;pressure;altitude;pressure_sealevel;temperature;humidity
69796;BME280;57073;45.650;9.612;2022-10-16T00:00:39;99643.81;;;17.42;63.45
69796;BME280;57073;45.650;9.612;2022-10-16T00:02:40;99646.84;;;17.46;63.38
69796;BME280;57073;45.650;9.612;2022-10-16T00:04:40;99640.53;;;17.40;63.30
69796;BME280;57073;45.650;9.612;2022-10-16T00:06:40;99647.59;;;17.41;63.34
69796;BME280;57073;45.650;9.612;2022-10-16T00:08:41;99653.81;;;17.42;63.69
69796;BME280;57073;45.650;9.612;2022-10-16T00:10:42;99643.81;;;17.42;63.52
69796;BME280;57073;45.650;9.612;2022-10-16T00:12:42;99647.09;;;17.44;63.57
69796;BME280;57073;45.650;9.612;2022-10-16T00:14:42;99643.81;;;17.42;63.18
69796;BME280;57073;45.650;9.612;2022-10-16T00:16:44;99646.22;;;17.39;63.66
69796;BME280;57073;45.650;9.612;2022-10-16T00:18:44;99644.81;;;17.36;64.02
69796;BME280;57073;45.650;9.612;2022-10-16T00:20:45;99654.34;;;17.39;63.71
69796;BME280;57073;45.650;9.612;2022-10-16T00:22:45;99651.09;;;17.42;63.67
69796;BME280;57073;45.650;9.612;2022-10-16T00:24:46;99649.22;;;17.42;63.68
69796;BME280;57073;45.650;9.612;2022-10-16T00:26:49;99648.66;;;17.40;63.87
69796;BME280;57073;45.650;9.612;2022-10-16T00:28:50;99647.84;;;17.40;64.53
69796;BME280;57073;45.650;9.612;2022-10-16T00:30:51;99644.94;;;17.47;63.86
69796;BME280;57073;45.650;9.612;2022-10-16T00:32:52;99653.31;;;17.45;64.04
69796;BME280;57073;45.650;9.612;2022-10-16T00:34:52;99658.63;;;17.35;64.55
69796;BME280;57073;45.650;9.612;2022-10-16T00:36:54;99652.13;;;17.36;64.75
69796;BME280;57073;45.650;9.612;2022-10-16T00:38:56;99649.66;;;17.34;64.69
69796;BME280;57073;45.650;9.612;2022-10-16T00:40:59;99654.03;;;17.35;64.67
69796;BME280;57073;45.650;9.612;2022-10-16T00:43:00;99648.59;;;17.35;64.83
69796;BME280;57073;45.650;9.612;2022-10-16T00:45:00;99647.25;;;17.38;64.43
69796;BME280;57073;45.650;9.612;2022-10-16T00:47:00;99654.34;;;17.39;64.89
69796;BME280;57073;45.650;9.612;2022-10-16T00:49:16;99660.09;;;17.42;64.07
69796;BME280;57073;45.650;9.612;2022-10-16T00:51:19;99660.59;;;17.39;64.58
69796;BME280;57073;45.650;9.612;2022-10-16T00:53:22;99652.69;;;17.38;64.22
69796;BME280;57073;45.650;9.612;2022-10-16T00:55:24;99655.66;;;17.36;64.98
69796;BME280;57073;45.650;9.612;2022-10-16T00:57:25;99664.34;;;17.38;64.89
69796;BME280;57073;45.650;9.612;2022-10-16T00:59:33;99654.09;;;17.40;64.56
69796;BME280;57073;45.650;9.612;2022-10-16T01:01:34;99658.44;;;17.41;64.63
69796;BME280;57073;45.650;9.612;2022-10-16T01:03:36;99646.59;;;17.48;64.23
69796;BME280;57073;45.650;9.612;2022-10-16T01:05:45;99649.22;;;17.42;64.16
69796;BME280;57073;45.650;9.612;2022-10-16T01:07:56;99648.91;;;17.39;64.20
69796;BME280;57073;45.650;9.612;2022-10-16T01:10:10;99637.19;;;17.33;64.03
69796;BME280;57073;45.650;9.612;2022-10-16T01:12:30;99635.53;;;17.32;64.33
69796;BME280;57073;45.650;9.612;2022-10-16T01:14:54;99649.66;;;17.34;64.17
69796;BME280;57073;45.650;9.612;2022-10-16T01:17:11;99647.75;;;17.35;64.24
69796;BME280;57073;45.650;9.612;2022-10-16T01:21:22;99646.53;;;17.42;64.03
69796;BME280;57073;45.650;9.612;2022-10-16T01:27:51;99646.28;;;17.44;63.94
69796;BME280;57073;45.650;9.612;2022-10-16T01:34:37;99644.88;;;17.41;64.46
69796;BME280;57073;45.650;9.612;2022-10-16T01:36:42;99643.81;;;17.42;64.31
69796;BME280;57073;45.650;9.612;2022-10-16T01:38:47;99633.19;;;17.41;64.49
69796;BME280;57073;45.650;9.612;2022-10-16T01:40:53;99639.13;;;17.38;64.37
69796;BME280;57073;45.650;9.612;2022-10-16T01:43:04;99641.34;;;17.41;64.73
69796;BME280;57073;45.650;9.612;2022-10-16T01:45:06;99633.44;;;17.39;64.36
69796;BME280;57073;45.650;9.612;2022-10-16T01:47:09;99639.69;;;17.40;64.60
69796;BME280;57073;45.650;9.612;2022-10-16T01:49:11;99636.41;;;17.38;64.50
69796;BME280;57073;45.650;9.612;2022-10-16T01:51:14;99635.91;;;17.41;64.49
69796;BME280;57073;45.650;9.612;2022-10-16T01:53:16;99639.44;;;17.41;64.67
69796;BME280;57073;45.650;9.612;2022-10-16T01:55:22;99640.00;;;17.43;64.38
69796;BME280;57073;45.650;9.612;2022-10-16T01:57:25;99642.97;;;17.42;64.30
69796;BME280;57073;45.650;9.612;2022-10-16T01:59:30;99635.41;;;17.44;64.22
69796;BME280;57073;45.650;9.612;2022-10-16T02:01:33;99634.63;;;17.49;64.21
69796;BME280;57073;45.650;9.612;2022-10-16T02:03:37;99630.31;;;17.48;64.09
69796;BME280;57073;45.650;9.612;2022-10-16T02:05:46;99632.13;;;17.42;64.57
69796;BME280;57073;45.650;9.612;2022-10-16T02:07:48;99634.00;;;17.41;64.39
69796;BME280;57073;45.650;9.612;2022-10-16T02:09:49;99631.81;;;17.38;64.98
69796;BME280;57073;45.650;9.612;2022-10-16T02:11:52;99638.31;;;17.37;64.88
69796;BME280;57073;45.650;9.612;2022-10-16T02:13:59;99641.53;;;17.34;65.03
69796;BME280;57073;45.650;9.612;2022-10-16T02:16:01;99634.47;;;17.33;65.34
69796;BME280;57073;45.650;9.612;2022-10-16T02:18:04;99639.31;;;17.31;65.86
69796;BME280;57073;45.650;9.612;2022-10-16T02:20:05;99641.47;;;17.29;65.96
69796;BME280;57073;45.650;9.612;2022-10-16T02:22:08;99646.72;;;17.36;65.29
69796;BME280;57073;45.650;9.612;2022-10-16T02:24:47;99646.31;;;17.27;65.45
69796;BME280;57073;45.650;9.612;2022-10-16T02:27:04;99648.41;;;17.20;66.12
69796;BME280;57073;45.650;9.612;2022-10-16T02:29:11;99644.06;;;17.19;66.06
69796;BME280;57073;45.650;9.612;2022-10-16T02:31:18;99641.91;;;17.21;66.56
69796;BME280;57073;45.650;9.612;2022-10-16T02:33:21;99649.53;;;17.24;66.34
69796;BME280;57073;45.650;9.612;2022-10-16T02:35:24;99652.25;;;17.24;66.48
69796;BME280;57073;45.650;9.612;2022-10-16T02:37:25;99650.38;;;17.24;66.16
69796;BME280;57073;45.650;9.612;2022-10-16T02:39:28;99655.78;;;17.24;66.42
69796;BME280;57073;45.650;9.612;2022-10-16T02:41:29;99660.91;;;17.21;66.24
69796;BME280;57073;45.650;9.612;2022-10-16T02:43:30;99658.19;;;17.21;66.24
69796;BME280;57073;45.650;9.612;2022-10-16T02:45:31;99658.63;;;17.13;66.78
69796;BME280;57073;45.650;9.612;2022-10-16T02:47:31;99661.97;;;17.20;66.38
69796;BME280;57073;45.650;9.612;2022-10-16T02:49:32;99660.09;;;17.20;66.55
69796;BME280;57073;45.650;9.612;2022-10-16T02:51:32;99664.09;;;17.18;66.34
69796;BME280;57073;45.650;9.612;2022-10-16T02:53:33;99651.56;;;17.12;66.62
69796;BME280;57073;45.650;9.612;2022-10-16T02:55:33;99665.75;;;17.19;66.24
69796;BME280;57073;45.650;9.612;2022-10-16T02:57:33;99655.41;;;17.16;65.30
69796;BME280;57073;45.650;9.612;2022-10-16T02:59:34;99664.44;;;17.21;65.59
69796;BME280;57073;45.650;9.612;2022-10-16T03:01:34;99659.00;;;17.21;64.57
69796;BME280;57073;45.650;9.612;2022-10-16T03:03:34;99663.53;;;17.16;64.96
69796;BME280;57073;45.650;9.612;2022-10-16T03:05:35;99665.19;;;17.17;64.57
69796;BME280;57073;45.650;9.612;2022-10-16T03:07:35;99662.09;;;17.08;65.62
69796;BME280;57073;45.650;9.612;2022-10-16T03:09:35;99667.75;;;17.07;65.60
69796;BME280;57073;45.650;9.612;2022-10-16T03:11:36;99677.59;;;17.13;65.96
69796;BME280;57073;45.650;9.612;2022-10-16T03:13:36;99673.84;;;17.14;65.48
69796;BME280;57073;45.650;9.612;2022-10-16T03:15:36;99671.69;;;17.16;65.62
69796;BME280;57073;45.650;9.612;2022-10-16T03:17:37;99675.53;;;17.20;65.14
69796;BME280;57073;45.650;9.612;2022-10-16T03:19:37;99671.50;;;17.22;65.07
69796;BME280;57073;45.650;9.612;2022-10-16T03:21:38;99661.91;;;17.15;64.73
69796;BME280;57073;45.650;9.612;2022-10-16T03:23:38;99659.78;;;17.17;64.70
69796;BME280;57073;45.650;9.612;2022-10-16T03:25:39;99670.63;;;17.17;64.98
69796;BME280;57073;45.650;9.612;2022-10-16T03:27:39;99675.53;;;17.20;64.81
69796;BME280;57073;45.650;9.612;2022-10-16T03:29:40;99672.19;;;17.13;64.67
69796;BME280;57073;45.650;9.612;2022-10-16T03:31:40;99678.63;;;17.07;65.63
69796;BME280;57073;45.650;9.612;2022-10-16T03:33:41;99670.88;;;17.15;64.76
69796;BME280;57073;45.650;9.612;2022-10-16T03:35:41;99680.13;;;17.19;64.89
69796;BME280;57073;45.650;9.612;2022-10-16T03:37:41;99668.97;;;17.16;64.39
69796;BME280;57073;45.650;9.612;2022-10-16T03:39:42;99677.59;;;17.13;64.97
69796;BME280;57073;45.650;9.612;2022-10-16T03:41:42;99684.69;;;17.14;65.15
69796;BME280;57073;45.650;9.612;2022-10-16T03:43:42;99682.22;;;17.12;65.45
69796;BME280;57073;45.650;9.612;2022-10-16T03:45:43;99678.38;;;17.08;65.83
69796;BME280;57073;45.650;9.612;2022-10-16T03:47:43;99675.41;;;17.10;65.35
69796;BME280;57073;45.650;9.612;2022-10-16T03:49:44;99679.25;;;17.14;65.07
69796;BME280;57073;45.650;9.612;2022-10-16T03:51:44;99683.41;;;17.21;64.89
69796;BME280;57073;45.650;9.612;2022-10-16T03:53:44;99685.63;;;17.24;64.58
69796;BME280;57073;45.650;9.612;2022-10-16T03:55:45;99683.16;;;17.23;64.10
69796;BME280;57073;45.650;9.612;2022-10-16T03:57:45;99688.84;;;17.21;64.18
69796;BME280;57073;45.650;9.612;2022-10-16T03:59:46;99682.53;;;17.16;64.51
69796;BME280;57073;45.650;9.612;2022-10-16T04:01:46;99690.19;;;17.19;64.98
69796;BME280;57073;45.650;9.612;2022-10-16T04:03:47;99690.59;;;17.11;65.02
69796;BME280;57073;45.650;9.612;2022-10-16T04:05:47;99695.03;;;17.17;64.51
69796;BME280;57073;45.650;9.612;2022-10-16T04:07:47;99698.88;;;17.21;65.04
69796;BME280;57073;45.650;9.612;2022-10-16T04:09:48;99695.03;;;17.17;65.09
69796;BME280;57073;45.650;9.612;2022-10-16T04:11:48;99701.59;;;17.21;64.78
69796;BME280;57073;45.650;9.612;2022-10-16T04:13:48;99702.00;;;17.13;65.03
69796;BME280;57073;45.650;9.612;2022-10-16T04:15:49;99704.22;;;17.16;65.10
69796;BME280;57073;45.650;9.612;2022-10-16T04:17:49;99706.22;;;17.03;65.38
69796;BME280;57073;45.650;9.612;2022-10-16T04:19:50;99709.19;;;17.02;65.72
69796;BME280;57073;45.650;9.612;2022-10-16T04:21:50;99705.66;;;17.01;65.47
69796;BME280;57073;45.650;9.612;2022-10-16T04:23:50;99707.22;;;16.97;65.64
69796;BME280;57073;45.650;9.612;2022-10-16T04:25:51;99717.41;;;16.90;65.94
69796;BME280;57073;45.650;9.612;2022-10-16T04:27:55;99712.81;;;16.91;65.78
69796;BME280;57073;45.650;9.612;2022-10-16T04:29:56;99720.78;;;16.97;65.36
69796;BME280;57073;45.650;9.612;2022-10-16T04:31:56;99717.75;;;16.94;65.42
69796;BME280;57073;45.650;9.612;2022-10-16T04:33:56;99723.09;;;16.89;65.87
69796;BME280;57073;45.650;9.612;2022-10-16T04:36:00;99724.41;;;16.86;66.55
69796;BME280;57073;45.650;9.612;2022-10-16T04:38:01;99715.44;;;16.85;66.10
69796;BME280;57073;45.650;9.612;2022-10-16T04:40:02;99719.38;;;16.78;66.27
69796;BME280;57073;45.650;9.612;2022-10-16T04:42:02;99726.16;;;16.80;66.43
69796;BME280;57073;45.650;9.612;2022-10-16T04:44:02;99721.50;;;16.76;66.67
69796;BME280;57073;45.650;9.612;2022-10-16T04:46:03;99724.22;;;16.76;66.68
69796;BME280;57073;45.650;9.612;2022-10-16T04:48:04;99723.81;;;16.67;67.00
69796;BME280;57073;45.650;9.612;2022-10-16T04:50:05;99722.47;;;16.70;66.65
69796;BME280;57073;45.650;9.612;2022-10-16T04:52:06;99719.84;;;16.75;65.31
69796;BME280;57073;45.650;9.612;2022-10-16T04:54:06;99731.78;;;16.74;66.32
69796;BME280;57073;45.650;9.612;2022-10-16T04:56:06;99726.28;;;16.68;66.04
69796;BME280;57073;45.650;9.612;2022-10-16T04:58:07;99723.31;;;16.70;66.02
69796;BME280;57073;45.650;9.612;2022-10-16T05:00:08;99733.84;;;16.66;66.29
69796;BME280;57073;45.650;9.612;2022-10-16T05:02:09;99725.13;;;16.64;66.47
69796;BME280;57073;45.650;9.612;2022-10-16T05:04:10;99726.28;;;16.68;66.56
69796;BME280;57073;45.650;9.612;2022-10-16T05:06:10;99727.66;;;16.71;66.09
69796;BME280;57073;45.650;9.612;2022-10-16T05:08:12;99727.09;;;16.69;66.25
69796;BME280;57073;45.650;9.612;2022-10-16T05:10:13;99726.84;;;16.71;66.12
69796;BME280;57073;45.650;9.612;2022-10-16T05:12:13;99731.22;;;16.72;66.42
69796;BME280;57073;45.650;9.612;2022-10-16T05:14:14;99735.97;;;16.64;66.26
69796;BME280;57073;45.650;9.612;2022-10-16T05:16:15;99731.84;;;16.62;66.26
69796;BME280;57073;45.650;9.612;2022-10-16T05:18:16;99734.66;;;16.67;66.18
69796;BME280;57073;45.650;9.612;2022-10-16T05:20:16;99735.47;;;16.67;66.05
69796;BME280;57073;45.650;9.612;2022-10-16T05:22:17;99743.59;;;16.67;66.20
69796;BME280;57073;45.650;9.612;2022-10-16T05:24:17;99742.69;;;16.62;66.24
69796;BME280;57073;45.650;9.612;2022-10-16T05:26:18;99735.13;;;16.64;66.03
69796;BME280;57073;45.650;9.612;2022-10-16T05:28:18;99741.13;;;16.66;65.83
69796;BME280;57073;45.650;9.612;2022-10-16T05:30:19;99734.81;;;16.60;65.86
69796;BME280;57073;45.650;9.612;2022-10-16T05:32:20;99734.47;;;16.57;65.97
69796;BME280;57073;45.650;9.612;2022-10-16T05:34:20;99742.03;;;16.55;65.92
69796;BME280;57073;45.650;9.612;2022-10-16T05:36:21;99736.50;;;16.49;66.41
69796;BME280;57073;45.650;9.612;2022-10-16T05:38:21;99737.94;;;16.52;66.16
69796;BME280;57073;45.650;9.612;2022-10-16T05:40:22;99740.88;;;16.51;66.10
69796;BME280;57073;45.650;9.612;2022-10-16T05:42:23;99739.41;;;16.43;66.26
69796;BME280;57073;45.650;9.612;2022-10-16T05:44:23;99744.97;;;16.36;66.67
69796;BME280;57073;45.650;9.612;2022-10-16T05:46:23;99747.09;;;16.34;66.90
69796;BME280;57073;45.650;9.612;2022-10-16T05:48:24;99748.09;;;16.28;67.31
69796;BME280;57073;45.650;9.612;2022-10-16T05:50:25;99737.25;;;16.28;67.56
69796;BME280;57073;45.650;9.612;2022-10-16T05:52:27;99752.19;;;16.31;67.23
69796;BME280;57073;45.650;9.612;2022-10-16T05:54:27;99753.84;;;16.32;67.43
69796;BME280;57073;45.650;9.612;2022-10-16T05:56:28;99758.19;;;16.33;67.23
69796;BME280;57073;45.650;9.612;2022-10-16T05:58:34;99753.19;;;16.41;66.91
69796;BME280;57073;45.650;9.612;2022-10-16T06:00:35;99768.63;;;16.41;66.50
69796;BME280;57073;45.650;9.612;2022-10-16T06:02:35;99758.38;;;16.43;66.21
69796;BME280;57073;45.650;9.612;2022-10-16T06:04:36;99777.22;;;16.38;67.05
69796;BME280;57073;45.650;9.612;2022-10-16T06:06:36;99772.53;;;16.33;67.41
69796;BME280;57073;45.650;9.612;2022-10-16T06:08:37;99777.22;;;16.38;67.28
69796;BME280;57073;45.650;9.612;2022-10-16T06:10:37;99780.41;;;16.35;67.31
69796;BME280;57073;45.650;9.612;2022-10-16T06:12:38;99780.19;;;16.36;67.25
69796;BME280;57073;45.650;9.612;2022-10-16T06:14:38;99782.84;;;16.48;66.67
69796;BME280;57073;45.650;9.612;2022-10-16T06:16:39;99792.59;;;16.49;66.65
69796;BME280;57073;45.650;9.612;2022-10-16T06:18:39;99798.44;;;16.41;67.69
69796;BME280;57073;45.650;9.612;2022-10-16T06:20:40;99803.44;;;16.49;66.95
69796;BME280;57073;45.650;9.612;2022-10-16T06:22:40;99799.34;;;16.46;66.84
69796;BME280;57073;45.650;9.612;2022-10-16T06:24:40;99801.81;;;16.48;66.93
69796;BME280;57073;45.650;9.612;2022-10-16T06:26:41;99800.47;;;16.51;66.87
69796;BME280;57073;45.650;9.612;2022-10-16T06:28:41;99800.81;;;16.54;66.65
69796;BME280;57073;45.650;9.612;2022-10-16T06:30:42;99812.81;;;16.58;66.34
69796;BME280;57073;45.650;9.612;2022-10-16T06:32:45;99809.75;;;16.55;66.59
69796;BME280;57073;45.650;9.612;2022-10-16T06:34:46;99817.75;;;16.61;66.58
69796;BME280;57073;45.650;9.612;2022-10-16T06:36:46;99816.16;;;16.48;66.90
69796;BME280;57073;45.650;9.612;2022-10-16T06:38:47;99822.50;;;16.54;66.99
69796;BME280;57073;45.650;9.612;2022-10-16T06:40:47;99826.94;;;16.60;67.19
69796;BME280;57073;45.650;9.612;2022-10-16T06:42:48;99822.69;;;16.64;67.17
69796;BME280;57073;45.650;9.612;2022-10-16T06:44:49;99832.22;;;16.67;66.62
69796;BME280;57073;45.650;9.612;2022-10-16T06:46:49;99830.97;;;16.75;66.57
69796;BME280;57073;45.650;9.612;2022-10-16T06:48:49;99826.06;;;16.72;66.59
69796;BME280;57073;45.650;9.612;2022-10-16T06:52:57;99830.50;;;16.78;65.91
69796;BME280;57073;45.650;9.612;2022-10-16T06:54:57;99839.78;;;16.82;65.88
69796;BME280;57073;45.650;9.612;2022-10-16T06:56:57;99844.38;;;16.81;65.97
69796;BME280;57073;45.650;9.612;2022-10-16T06:59:00;99852.75;;;16.80;66.37
69796;BME280;57073;45.650;9.612;2022-10-16T07:01:01;99848.03;;;16.87;66.07
69796;BME280;57073;45.650;9.612;2022-10-16T07:03:02;99865.78;;;16.95;65.93
69796;BME280;57073;45.650;9.612;2022-10-16T07:05:02;99853.72;;;17.02;65.93
69796;BME280;57073;45.650;9.612;2022-10-16T07:07:02;99860.38;;;17.12;65.60
69796;BME280;57073;45.650;9.612;2022-10-16T07:09:08;99856.59;;;17.13;65.59
69796;BME280;57073;45.650;9.612;2022-10-16T07:11:10;99863.31;;;17.27;65.12
69796;BME280;57073;45.650;9.612;2022-10-16T07:13:11;99869.41;;;17.34;64.78
69796;BME280;57073;45.650;9.612;2022-10-16T07:15:14;99859.03;;;17.31;65.06
69796;BME280;57073;45.650;9.612;2022-10-16T07:17:15;99877.94;;;17.43;64.35
69796;BME280;57073;45.650;9.612;2022-10-16T07:19:15;99868.88;;;17.54;64.75
69796;BME280;57073;45.650;9.612;2022-10-16T07:21:21;99873.50;;;17.54;64.20
69796;BME280;57073;45.650;9.612;2022-10-16T07:23:22;99880.16;;;17.63;64.33
69796;BME280;57073;45.650;9.612;2022-10-16T07:25:23;99873.91;;;17.62;64.31
69796;BME280;57073;45.650;9.612;2022-10-16T07:27:23;99869.13;;;17.70;63.94
69796;BME280;57073;45.650;9.612;2022-10-16T07:29:24;99876.22;;;17.93;64.31
69796;BME280;57073;45.650;9.612;2022-10-16T07:31:24;99881.31;;;18.06;63.75
69796;BME280;57073;45.650;9.612;2022-10-16T07:33:25;99890.16;;;18.18;63.89
69796;BME280;57073;45.650;9.612;2022-10-16T07:35:25;99882.59;;;18.20;61.83
69796;BME280;57073;45.650;9.612;2022-10-16T07:37:26;99894.47;;;18.36;62.21
69796;BME280;57073;45.650;9.612;2022-10-16T07:39:26;99888.81;;;18.43;62.77
69796;BME280;57073;45.650;9.612;2022-10-16T07:41:27;99890.88;;;18.58;62.47
69796;BME280;57073;45.650;9.612;2022-10-16T07:43:28;99890.22;;;18.73;62.10
69796;BME280;57073;45.650;9.612;2022-10-16T07:45:29;99895.78;;;18.83;61.60
69796;BME280;57073;45.650;9.612;2022-10-16T07:47:29;99905.97;;;18.93;61.04
69796;BME280;57073;45.650;9.612;2022-10-16T07:49:30;99902.75;;;19.01;61.67
69796;BME280;57073;45.650;9.612;2022-10-16T07:51:30;99899.56;;;19.09;60.73
69796;BME280;57073;45.650;9.612;2022-10-16T07:53:31;99911.31;;;19.15;60.58
69796;BME280;57073;45.650;9.612;2022-10-16T07:55:32;99905.31;;;19.13;60.94
69796;BME280;57073;45.650;9.612;2022-10-16T07:57:32;99910.50;;;19.14;59.94
69796;BME280;57073;45.650;9.612;2022-10-16T07:59:32;99911.13;;;19.27;59.87
69796;BME280;57073;45.650;9.612;2022-10-16T08:01:33;99917.97;;;19.29;59.26
69796;BME280;57073;45.650;9.612;2022-10-16T08:03:33;99913.59;;;19.28;59.28
69796;BME280;57073;45.650;9.612;2022-10-16T08:05:34;99916.50;;;19.49;60.19
69796;BME280;57073;45.650;9.612;2022-10-16T08:07:34;99911.63;;;19.51;58.89
69796;BME280;57073;45.650;9.612;2022-10-16T08:09:35;99910.25;;;19.53;59.06
69796;BME280;57073;45.650;9.612;2022-10-16T08:11:35;99917.06;;;19.51;57.42
69796;BME280;57073;45.650;9.612;2022-10-16T08:13:36;99924.75;;;19.64;58.91
69796;BME280;57073;45.650;9.612;2022-10-16T08:15:36;99916.97;;;19.73;59.16
69796;BME280;57073;45.650;9.612;2022-10-16T08:17:37;99912.66;;;19.82;58.12
69796;BME280;57073;45.650;9.612;2022-10-16T08:19:37;99923.34;;;19.94;58.64
69796;BME280;57073;45.650;9.612;2022-10-16T08:21:38;99926.13;;;20.04;58.65
69796;BME280;57073;45.650;9.612;2022-10-16T08:23:38;99918.56;;;20.17;58.36
69796;BME280;57073;45.650;9.612;2022-10-16T08:25:39;99918.03;;;20.25;58.19
69796;BME280;57073;45.650;9.612;2022-10-16T08:27:40;99915.63;;;20.34;56.61
69796;BME280;57073;45.650;9.612;2022-10-16T08:29:40;99913.47;;;20.41;57.00
69796;BME280;57073;45.650;9.612;2022-10-16T08:31:41;99913.75;;;20.39;55.83
69796;BME280;57073;45.650;9.612;2022-10-16T08:33:44;99913.50;;;20.46;56.43
69796;BME280;57073;45.650;9.612;2022-10-16T08:35:53;99914.06;;;20.48;55.50
69796;BME280;57073;45.650;9.612;2022-10-16T08:37:53;99917.06;;;20.52;55.07
69796;BME280;57073;45.650;9.612;2022-10-16T08:39:54;99907.75;;;20.42;54.44
69796;BME280;57073;45.650;9.612;2022-10-16T08:50:30;99925.09;;;20.84;54.97
69796;BME280;57073;45.650;9.612;2022-10-16T08:52:34;99919.91;;;20.87;55.28
69796;BME280;57073;45.650;9.612;2022-10-16T08:54:37;99916.09;;;20.94;54.26
69796;BME280;57073;45.650;9.612;2022-10-16T08:56:42;99918.56;;;20.95;55.60
69796;BME280;57073;45.650;9.612;2022-10-16T08:58:48;99922.38;;;21.04;55.42
69796;BME280;57073;45.650;9.612;2022-10-16T09:00:53;99927.59;;;21.11;54.01
69796;BME280;57073;45.650;9.612;2022-10-16T09:12:37;99930.31;;;21.32;54.68
69796;BME280;57073;45.650;9.612;2022-10-16T09:17:06;99936.31;;;21.39;55.21
69796;BME280;57073;45.650;9.612;2022-10-16T09:19:25;99936.59;;;21.37;54.41
69796;BME280;57073;45.650;9.612;2022-10-16T09:21:30;99935.25;;;21.35;54.94
69796;BME280;57073;45.650;9.612;2022-10-16T09:23:35;99933.63;;;21.29;54.24
69796;BME280;57073;45.650;9.612;2022-10-16T09:25:38;99933.34;;;21.30;55.08
69796;BME280;57073;45.650;9.612;2022-10-16T09:27:40;99934.69;;;21.33;54.44
69796;BME280;57073;45.650;9.612;2022-10-16T09:29:40;99936.31;;;21.34;54.94
69796;BME280;57073;45.650;9.612;2022-10-16T09:31:41;99936.34;;;21.29;55.03
69796;BME280;57073;45.650;9.612;2022-10-16T09:33:43;99942.88;;;21.22;54.33
69796;BME280;57073;45.650;9.612;2022-10-16T09:35:49;99938.53;;;21.27;53.96
69796;BME280;57073;45.650;9.612;2022-10-16T09:37:51;99946.16;;;21.19;54.60
69796;BME280;57073;45.650;9.612;2022-10-16T09:39:54;99947.53;;;21.27;55.10
69796;BME280;57073;45.650;9.612;2022-10-16T09:41:55;99934.16;;;21.25;55.17
69796;BME280;57073;45.650;9.612;2022-10-16T09:44:00;99939.06;;;21.29;55.05
69796;BME280;57073;45.650;9.612;2022-10-16T09:48:36;99936.06;;;21.35;54.84
69796;BME280;57073;45.650;9.612;2022-10-16T09:50:36;99941.78;;;21.39;54.28
69796;BME280;57073;45.650;9.612;2022-10-16T09:52:37;99939.63;;;21.31;54.45
69796;BME280;57073;45.650;9.612;2022-10-16T09:54:37;99939.88;;;21.19;54.02
69796;BME280;57073;45.650;9.612;2022-10-16T09:56:38;99936.31;;;21.18;54.38
69796;BME280;57073;45.650;9.612;2022-10-16T09:58:43;99939.03;;;21.13;54.69
69796;BME280;57073;45.650;9.612;2022-10-16T10:00:52;99937.97;;;21.09;54.02
69796;BME280;57073;45.650;9.612;2022-10-16T10:02:54;99940.16;;;21.12;54.42
69796;BME280;57073;45.650;9.612;2022-10-16T10:04:55;99940.72;;;21.19;54.84
69796;BME280;57073;45.650;9.612;2022-10-16T10:06:56;99949.72;;;21.25;55.68
69796;BME280;57073;45.650;9.612;2022-10-16T10:10:59;99942.06;;;21.22;54.96
69796;BME280;57073;45.650;9.612;2022-10-16T10:13:00;99942.88;;;21.22;55.21
69796;BME280;57073;45.650;9.612;2022-10-16T10:19:19;99933.63;;;21.29;54.87
69796;BME280;57073;45.650;9.612;2022-10-16T10:21:21;99933.59;;;21.23;53.90
69796;BME280;57073;45.650;9.612;2022-10-16T10:23:24;99935.78;;;21.21;54.37
69796;BME280;57073;45.650;9.612;2022-10-16T10:27:59;99935.53;;;21.23;55.09
69796;BME280;57073;45.650;9.612;2022-10-16T10:33:19;99929.78;;;21.24;54.70
69796;BME280;57073;45.650;9.612;2022-10-16T10:37:41;99925.41;;;21.23;53.97
69796;BME280;57073;45.650;9.612;2022-10-16T10:39:53;99925.69;;;21.27;54.53
69796;BME280;57073;45.650;9.612;2022-10-16T10:42:14;99930.03;;;21.28;54.63
69796;BME280;57073;45.650;9.612;2022-10-16T10:48:52;99928.13;;;21.34;54.53
69796;BME280;57073;45.650;9.612;2022-10-16T10:51:01;99926.50;;;21.38;55.15
69796;BME280;57073;45.650;9.612;2022-10-16T11:02:29;99927.03;;;21.24;54.61
69796;BME280;57073;45.650;9.612;2022-10-16T11:07:05;99925.41;;;21.34;55.07
69796;BME280;57073;45.650;9.612;2022-10-16T11:09:23;99916.66;;;21.37;55.89
69796;BME280;57073;45.650;9.612;2022-10-16T11:11:35;99921.31;;;21.41;54.89
69796;BME280;57073;45.650;9.612;2022-10-16T11:16:21;99918.59;;;21.41;54.52
69796;BME280;57073;45.650;9.612;2022-10-16T11:18:42;99905.25;;;21.45;55.56
69796;BME280;57073;45.650;9.612;2022-10-16T11:21:06;99910.13;;;21.48;55.87
69796;BME280;57073;45.650;9.612;2022-10-16T11:23:18;99908.78;;;21.46;54.81
69796;BME280;57073;45.650;9.612;2022-10-16T11:25:29;99901.94;;;21.43;54.97
69796;BME280;57073;45.650;9.612;2022-10-16T11:27:47;99908.47;;;21.42;54.64
69796;BME280;57073;45.650;9.612;2022-10-16T11:29:56;99904.38;;;21.44;55.50
69796;BME280;57073;45.650;9.612;2022-10-16T11:32:06;99907.97;;;21.50;55.53
69796;BME280;57073;45.650;9.612;2022-10-16T11:34:35;99903.59;;;21.54;55.33
69796;BME280;57073;45.650;9.612;2022-10-16T11:36:44;99906.31;;;21.59;55.02
69796;BME280;57073;45.650;9.612;2022-10-16T11:41:07;99910.41;;;21.62;54.82
69796;BME280;57073;45.650;9.612;2022-10-16T11:43:15;99910.94;;;21.69;54.76
69796;BME280;57073;45.650;9.612;2022-10-16T11:45:29;99899.19;;;21.74;55.06
69796;BME280;57073;45.650;9.612;2022-10-16T11:47:41;99906.81;;;21.77;55.21
69796;BME280;57073;45.650;9.612;2022-10-16T11:49:43;99904.34;;;21.80;54.86
69796;BME280;57073;45.650;9.612;2022-10-16T11:54:51;99896.69;;;21.88;54.71
69796;BME280;57073;45.650;9.612;2022-10-16T11:56:56;99895.34;;;21.75;53.78
69796;BME280;57073;45.650;9.612;2022-10-16T12:05:33;99889.09;;;21.74;53.48
69796;BME280;57073;45.650;9.612;2022-10-16T12:07:39;99893.97;;;21.82;54.74
69796;BME280;57073;45.650;9.612;2022-10-16T12:09:42;99890.41;;;21.82;54.58
69796;BME280;57073;45.650;9.612;2022-10-16T12:11:43;99895.06;;;21.81;54.69